Time;durP1;ratioP1;P1;durP2;ratioP2;P2;SDS_P1;SDS_P2;PMS_P1;PMS_P2;Temp;Humidity;BMP_temperature;BMP_pressure;BME280_temperature;BME280_humidity;BME280_pressure;Samples;Min_cycle;Max_cycle;Signal;HPM_P1;HPM_P2
2023/07/03 00:01:38;;;;;;;13.60;8.02;;;;;;;17.89;55.33;96534.72;10301371;28;20042;-29
2023/07/03 00:06:38;;;;;;;13.27;7.40;;;;;;;17.90;55.26;96531.38;10300801;28;20116;-29
2023/07/03 00:11:39;;;;;;;12.90;6.80;;;;;;;17.92;55.38;96529.69;10292641;28;20039;-30
2023/07/03 00:16:40;;;;;;;12.73;7.15;;;;;;;17.94;55.53;96521.25;10308287;28;20273;-30
2023/07/03 00:21:43;;;;;;;12.82;7.28;;;;;;;17.87;55.57;96521.22;10292770;28;20499;-29
2023/07/03 00:26:43;;;;;;;12.23;7.68;;;;;;;17.92;55.78;96519.53;10292026;28;20039;-29
2023/07/03 00:31:44;;;;;;;12.48;6.78;;;;;;;17.89;55.92;96524.59;10302419;28;20041;-28
2023/07/03 00:36:44;;;;;;;15.52;6.95;;;;;;;17.97;55.93;96527.97;10313282;28;20039;-29
2023/07/03 00:41:45;;;;;;;11.23;6.47;;;;;;;17.95;55.96;96517.84;10307850;28;20044;-29
2023/07/03 00:46:49;;;;;;;11.95;6.75;;;;;;;17.92;56.08;96519.53;10290153;28;20537;-28
2023/07/03 00:51:54;;;;;;;11.45;6.65;;;;;;;17.92;56.20;96515.31;10307575;28;20080;-29
2023/07/03 00:56:55;;;;;;;12.43;6.47;;;;;;;17.87;56.10;96513.63;10311500;28;20038;-29
2023/07/03 01:02:06;;;;;;;14.85;6.70;;;;;;;17.86;56.52;96509.41;10307000;28;20042;-30
2023/07/03 01:07:12;;;;;;;18.70;7.10;;;;;;;17.88;56.68;96503.50;10306192;28;20081;-29
2023/07/03 01:12:13;;;;;;;12.07;7.15;;;;;;;17.84;56.55;96511.13;10303530;28;20077;-29
2023/07/03 01:17:15;;;;;;;17.23;7.05;;;;;;;17.89;56.55;96505.19;10298511;28;20518;-29
2023/07/03 01:22:41;;;;;;;11.07;6.30;;;;;;;17.88;56.84;96502.66;10296559;28;20070;-29
2023/07/03 01:27:44;;;;;;;15.43;6.77;;;;;;;17.89;57.08;96504.34;10288595;28;20102;-29
2023/07/03 01:32:49;;;;;;;10.05;6.35;;;;;;;17.96;56.82;96506.03;10311772;28;20459;-28
2023/07/03 01:37:52;;;;;;;14.35;7.55;;;;;;;17.93;57.46;96511.09;10295354;28;20062;-29
2023/07/03 01:42:55;;;;;;;9.55;6.25;;;;;;;17.98;57.42;96509.41;10288880;28;20035;-29
2023/07/03 01:47:55;;;;;;;13.35;6.32;;;;;;;17.92;57.25;96504.34;10296741;28;20495;-29
2023/07/03 01:53:04;;;;;;;13.20;7.10;;;;;;;17.94;57.53;96502.66;10288983;28;20043;-29
2023/07/03 01:58:13;;;;;;;12.43;6.75;;;;;;;17.87;57.90;96506.91;10300203;28;20038;-29
2023/07/03 02:03:30;;;;;;;12.35;7.22;;;;;;;17.87;57.54;96498.44;10289447;28;20407;-29
2023/07/03 02:08:33;;;;;;;11.98;7.10;;;;;;;17.84;58.33;96503.50;10294979;28;20030;-29
2023/07/03 02:13:34;;;;;;;14.90;7.53;;;;;;;17.97;58.15;96500.09;10279195;28;20467;-29
2023/07/03 02:18:35;;;;;;;13.02;6.63;;;;;;;17.88;58.34;96498.44;10317705;28;20118;-30
2023/07/03 02:23:35;;;;;;;12.40;6.97;;;;;;;17.85;58.51;96498.47;10287389;28;20498;-29
2023/07/03 02:28:36;;;;;;;12.85;7.13;;;;;;;17.83;58.59;96502.66;10310679;28;20151;-29
2023/07/03 02:33:37;;;;;;;12.52;6.43;;;;;;;17.87;59.06;96495.91;10310765;28;20030;-29
2023/07/03 02:38:37;;;;;;;14.37;6.90;;;;;;;17.85;59.11;96503.53;10294422;28;20039;-28
2023/07/03 02:43:38;;;;;;;12.93;7.38;;;;;;;17.85;59.33;96502.66;10296688;28;20297;-28
2023/07/03 02:48:39;;;;;;;15.07;7.57;;;;;;;17.87;59.16;96508.56;10286484;28;20043;-29
2023/07/03 02:53:42;;;;;;;12.75;8.15;;;;;;;17.86;59.36;96509.41;10301773;28;20426;-29
2023/07/03 02:58:46;;;;;;;12.10;6.93;;;;;;;17.86;59.24;96510.28;10296745;28;20414;-30
2023/07/03 03:03:51;;;;;;;14.38;8.70;;;;;;;17.87;59.93;96500.97;10298303;28;20035;-29
2023/07/03 03:08:52;;;;;;;12.00;7.25;;;;;;;17.89;59.77;96509.41;10284682;28;20030;-29
2023/07/03 03:13:53;;;;;;;10.07;6.70;;;;;;;17.81;60.08;96504.34;10302243;28;20137;-29
2023/07/03 03:18:54;;;;;;;12.63;7.65;;;;;;;17.91;60.04;96507.72;10316225;28;20417;-29
2023/07/03 03:23:55;;;;;;;13.35;7.70;;;;;;;17.85;60.42;96503.53;10302623;28;20062;-28
2023/07/03 03:28:57;;;;;;;13.57;7.05;;;;;;;17.90;60.57;96503.53;10306709;28;20027;-29
2023/07/03 03:33:58;;;;;;;11.40;6.97;;;;;;;17.84;60.70;96503.50;10289570;28;20026;-29
2023/07/03 03:38:58;;;;;;;13.63;8.05;;;;;;;17.84;61.02;96495.91;10302596;28;20053;-29
2023/07/03 03:43:59;;;;;;;12.38;8.05;;;;;;;17.88;60.75;96505.19;10311538;28;20038;-28
2023/07/03 03:49:00;;;;;;;13.82;7.90;;;;;;;17.89;60.48;96495.06;10320426;28;20038;-28
2023/07/03 03:54:01;;;;;;;13.30;7.03;;;;;;;17.98;60.47;96501.81;10304194;28;20038;-29
2023/07/03 03:59:02;;;;;;;14.20;7.82;;;;;;;17.94;60.83;96502.66;10297461;28;20487;-31
2023/07/03 04:04:02;;;;;;;11.85;6.90;;;;;;;18.06;60.46;96502.63;10301331;28;20037;-31
2023/07/03 04:09:04;;;;;;;14.57;7.32;;;;;;;18.11;60.62;96500.94;10307607;28;20096;-32
2023/07/03 04:14:04;;;;;;;12.65;7.95;;;;;;;18.01;61.09;96504.34;10311077;28;20038;-31
2023/07/03 04:19:05;;;;;;;12.10;7.97;;;;;;;18.08;61.18;96508.56;10305069;28;20499;-32
2023/07/03 04:24:05;;;;;;;13.35;7.78;;;;;;;18.13;61.12;96516.97;10314733;28;20311;-31
2023/07/03 04:29:06;;;;;;;16.42;7.97;;;;;;;18.17;60.82;96511.06;10318339;28;20117;-32
2023/07/03 04:34:06;;;;;;;16.30;7.45;;;;;;;18.08;61.65;96506.03;10317733;28;20038;-31
2023/07/03 04:39:07;;;;;;;12.17;8.10;;;;;;;18.20;61.40;96516.13;10320543;28;20035;-31
2023/07/03 04:44:12;;;;;;;14.82;8.27;;;;;;;18.07;60.90;96514.47;10332697;28;20286;-29
2023/07/03 04:49:12;;;;;;;17.35;8.55;;;;;;;18.10;60.51;96510.25;10324444;28;20042;-29
2023/07/03 04:54:12;;;;;;;11.90;7.83;;;;;;;18.52;59.61;96520.28;10325060;28;20038;-28
2023/07/03 04:59:13;;;;;;;16.53;8.07;;;;;;;18.76;58.64;96514.28;10315490;28;20041;-29
2023/07/03 05:04:13;;;;;;;13.60;6.93;;;;;;;18.91;58.63;96526.91;10298777;28;20547;-29
2023/07/03 05:09:13;;;;;;;13.93;7.20;;;;;;;19.03;58.29;96524.28;10339306;28;20133;-29
2023/07/03 05:14:15;;;;;;;11.00;7.45;;;;;;;19.24;57.85;96539.44;10343667;28;20025;-31
2023/07/03 05:19:15;;;;;;;13.77;7.47;;;;;;;19.33;57.87;96530.06;10323915;28;20029;-28
2023/07/03 05:24:15;;;;;;;10.57;6.20;;;;;;;19.32;57.63;96540.22;10321446;28;20042;-29
2023/07/03 05:29:16;;;;;;;15.93;7.60;;;;;;;19.28;57.67;96536.03;10321006;28;20080;-29
2023/07/03 05:34:16;;;;;;;17.17;8.13;;;;;;;19.30;57.45;96544.47;10311144;28;20293;-30
2023/07/03 05:39:17;;;;;;;9.40;6.30;;;;;;;19.32;57.48;96542.75;10306469;28;20034;-29
2023/07/03 05:44:17;;;;;;;10.77;5.80;;;;;;;19.33;57.70;96541.94;10296691;28;20043;-28
2023/07/03 05:49:18;;;;;;;14.48;6.45;;;;;;;19.34;57.47;96541.88;10294368;28;20026;-29
2023/07/03 05:54:21;;;;;;;9.50;6.00;;;;;;;19.36;57.53;96549.50;10313232;28;20034;-29
2023/07/03 05:59:21;;;;;;;9.52;5.95;;;;;;;19.36;57.47;96562.19;10296030;28;20289;-30
2023/07/03 06:04:23;;;;;;;11.57;6.25;;;;;;;19.39;57.35;96562.16;10315520;28;20065;-29
2023/07/03 06:09:24;;;;;;;12.55;6.88;;;;;;;19.58;56.97;96566.31;10312413;28;20043;-29
2023/07/03 06:14:25;;;;;;;11.98;6.28;;;;;;;19.66;56.50;96559.47;10296245;28;20118;-29
2023/07/03 06:19:27;;;;;;;10.30;6.25;;;;;;;19.61;56.85;96566.28;10296383;28;20167;-29
2023/07/03 06:24:28;;;;;;;13.57;7.38;;;;;;;19.53;57.04;96562.94;10316898;28;20160;-29
2023/07/03 06:29:28;;;;;;;10.88;6.13;;;;;;;19.50;57.33;96573.13;10318835;28;20520;-29
2023/07/03 06:34:28;;;;;;;8.93;6.43;;;;;;;19.48;57.29;96569.72;10310817;28;20406;-29
2023/07/03 06:39:29;;;;;;;9.77;6.17;;;;;;;19.49;56.82;96573.97;10295224;28;20274;-29
2023/07/03 06:44:29;;;;;;;9.50;6.10;;;;;;;19.49;57.21;96576.53;10310387;28;20620;-29
2023/07/03 06:49:30;;;;;;;7.93;5.25;;;;;;;19.50;57.07;96583.28;10296791;28;20046;-29
2023/07/03 06:54:32;;;;;;;9.27;5.23;;;;;;;19.48;57.28;96570.59;10294432;28;20034;-29
2023/07/03 06:59:33;;;;;;;9.45;5.80;;;;;;;19.49;57.41;96574.81;10294936;28;20281;-29
2023/07/03 07:04:33;;;;;;;10.40;6.10;;;;;;;19.65;56.82;96581.47;10309632;28;20037;-29
2023/07/03 07:09:34;;;;;;;12.20;6.40;;;;;;;19.78;56.55;96574.63;10304178;28;20301;-29
2023/07/03 07:14:35;;;;;;;9.07;6.03;;;;;;;19.76;56.54;96576.31;10310897;28;20620;-29
2023/07/03 07:19:36;;;;;;;9.27;6.03;;;;;;;19.66;57.07;96579.78;10309515;28;20483;-30
2023/07/03 07:24:36;;;;;;;8.85;5.90;;;;;;;19.60;57.49;96575.56;10304105;28;20035;-29
2023/07/03 07:29:39;;;;;;;8.13;5.57;;;;;;;19.59;57.17;96573.06;10317270;28;20039;-29
2023/07/03 07:34:40;;;;;;;8.77;5.22;;;;;;;19.58;57.23;96577.28;10309793;28;20685;-29
2023/07/03 07:39:42;;;;;;;9.43;5.60;;;;;;;19.57;57.20;96574.75;10301994;28;20034;-28
2023/07/03 07:44:42;;;;;;;7.13;5.53;;;;;;;19.57;57.28;96570.53;10310520;28;20026;-28
2023/07/03 07:49:44;;;;;;;7.35;5.38;;;;;;;19.57;57.43;96569.66;10317015;28;20038;-29
2023/07/03 07:54:45;;;;;;;8.20;5.72;;;;;;;19.57;57.05;96573.06;10325550;28;20031;-29
2023/07/03 07:59:45;;;;;;;8.43;5.93;;;;;;;19.69;57.29;96583.13;10301641;28;20037;-29
2023/07/03 08:04:45;;;;;;;10.27;6.17;;;;;;;19.84;56.91;96579.66;10323939;28;20296;-29
2023/07/03 08:09:46;;;;;;;8.90;5.50;;;;;;;19.84;56.73;96574.56;10291698;28;20286;-29
2023/07/03 08:14:46;;;;;;;8.93;5.97;;;;;;;19.78;56.83;96584.78;10323617;28;20305;-29
2023/07/03 08:19:47;;;;;;;8.40;5.90;;;;;;;19.69;57.11;96579.75;10301013;28;20038;-29
2023/07/03 08:24:47;;;;;;;8.63;5.80;;;;;;;19.64;57.27;96577.25;10308136;28;20278;-29
2023/07/03 08:29:47;;;;;;;7.53;4.90;;;;;;;19.64;57.32;96584.00;10323503;28;20288;-29
2023/07/03 08:34:49;;;;;;;7.85;5.68;;;;;;;19.63;57.41;96582.34;10300744;28;20030;-29
2023/07/03 08:39:50;;;;;;;7.70;5.15;;;;;;;19.63;57.41;96584.88;10306640;28;20034;-29
2023/07/03 08:44:50;;;;;;;8.87;5.80;;;;;;;19.63;57.14;96585.72;10298554;28;20034;-30
2023/07/03 08:49:51;;;;;;;7.45;5.45;;;;;;;19.63;57.48;96584.88;10299997;28;20128;-29
2023/07/03 08:54:53;;;;;;;9.43;5.93;;;;;;;19.71;57.45;96598.38;10314235;28;20486;-30
2023/07/03 08:59:53;;;;;;;8.40;5.63;;;;;;;19.88;56.79;96586.38;10306759;28;20094;-29
2023/07/03 09:05:20;;;;;;;8.25;5.50;;;;;;;19.94;56.76;96599.06;10314234;28;20414;-30
2023/07/03 09:10:33;;;;;;;8.07;5.37;;;;;;;19.86;56.98;96608.44;10325759;28;20046;-29
2023/07/03 09:15:59;;;;;;;8.23;5.32;;;;;;;19.76;57.18;96601.72;10314479;28;20532;-29
2023/07/03 09:21:00;;;;;;;7.35;4.78;;;;;;;19.72;57.31;96602.59;10302420;28;20140;-29
2023/07/03 09:26:11;;;;;;;6.03;4.88;;;;;;;19.70;57.41;96599.22;10298186;28;20460;-29
2023/07/03 09:31:12;;;;;;;5.65;4.53;;;;;;;19.68;56.95;96600.94;10309013;28;20026;-29
2023/07/03 09:36:35;;;;;;;7.70;5.70;;;;;;;19.67;57.38;96602.63;10302124;28;20030;-29
2023/07/03 09:41:36;;;;;;;8.27;6.18;;;;;;;19.68;57.41;96608.56;10305732;28;20125;-29
2023/07/03 09:46:36;;;;;;;6.53;5.00;;;;;;;19.67;57.43;96611.94;10313482;28;20137;-29
2023/07/03 09:51:39;;;;;;;7.10;4.82;;;;;;;19.81;57.24;96611.00;10297876;28;20056;-29
2023/07/03 09:56:39;;;;;;;5.50;4.75;;;;;;;19.95;57.05;96608.34;10313323;28;20033;-29
2023/07/03 10:01:40;;;;;;;6.50;4.93;;;;;;;19.97;56.94;96604.09;10313228;28;20516;-29
2023/07/03 10:07:04;;;;;;;5.85;5.00;;;;;;;19.90;57.00;96617.69;10312925;28;20298;-30
2023/07/03 10:12:09;;;;;;;5.97;4.30;;;;;;;19.82;57.23;96604.19;10295199;28;20034;-29
2023/07/03 10:17:12;;;;;;;7.23;4.67;;;;;;;19.77;57.36;96616.94;10298457;28;20035;-29
2023/07/03 10:22:14;;;;;;;6.60;4.72;;;;;;;19.75;57.53;96625.44;10301635;28;20066;-29
2023/07/03 10:27:19;;;;;;;5.15;4.60;;;;;;;19.73;57.78;96614.44;10290769;28;20054;-29
2023/07/03 10:32:23;;;;;;;6.53;4.40;;;;;;;19.73;57.64;96616.97;10322106;28;20039;-29
2023/07/03 10:37:25;;;;;;;5.43;3.75;;;;;;;19.72;57.69;96613.59;10302459;28;20089;-29
2023/07/03 10:42:41;;;;;;;8.23;4.00;;;;;;;19.72;57.59;96605.97;10307978;28;20063;-29
2023/07/03 10:47:55;;;;;;;6.20;4.20;;;;;;;19.87;57.36;96605.03;10287898;28;20057;-30
2023/07/03 10:53:15;;;;;;;6.78;4.80;;;;;;;19.99;57.13;96603.25;10300571;28;20113;-30
2023/07/03 10:58:27;;;;;;;7.63;4.70;;;;;;;19.97;57.16;96604.09;10311832;28;20063;-30
2023/07/03 11:03:36;;;;;;;7.40;4.88;;;;;;;19.90;57.31;96610.06;10324129;28;20072;-30
2023/07/03 11:08:47;;;;;;;7.20;4.85;;;;;;;19.83;57.29;96605.91;10325945;28;20046;-29
2023/07/03 11:13:59;;;;;;;5.53;4.50;;;;;;;19.80;57.56;96608.47;10312445;28;20045;-29
2023/07/03 11:19:11;;;;;;;5.68;4.55;;;;;;;19.79;57.66;96601.69;10321612;28;20105;-30
2023/07/03 11:24:19;;;;;;;7.55;4.22;;;;;;;19.75;57.63;96598.34;10302018;28;20057;-30
2023/07/03 11:29:20;;;;;;;5.93;4.13;;;;;;;19.76;57.78;96597.47;10293395;28;20098;-30
2023/07/03 11:34:22;;;;;;;5.55;3.90;;;;;;;19.74;57.53;96594.09;10313931;28;20030;-30
2023/07/03 11:39:26;;;;;;;9.00;4.32;;;;;;;19.78;57.54;96597.47;10320283;28;20035;-30
2023/07/03 11:44:32;;;;;;;10.52;4.55;;;;;;;19.99;57.59;96588.00;10294838;28;20114;-30
2023/07/03 11:49:36;;;;;;;;;;;;;;;20.10;57.23;96598.13;10302331;28;20118;-29
2023/07/03 11:54:38;;;;;;;6.65;4.13;;;;;;;20.03;57.28;96596.44;10291464;28;19968;-30
2023/07/03 11:59:42;;;;;;;10.98;3.90;;;;;;;19.93;57.39;96585.50;10316861;28;20573;-30
2023/07/03 12:04:42;;;;;;;7.53;4.38;;;;;;;19.86;57.25;96577.94;10309756;28;20122;-30
2023/07/03 12:09:43;;;;;;;8.60;4.07;;;;;;;19.84;57.75;96589.81;10297541;28;20043;-30
2023/07/03 12:15:00;;;;;;;12.40;4.20;;;;;;;19.83;57.76;96594.03;10309011;28;20026;-29
2023/07/03 12:20:10;;;;;;;11.15;4.20;;;;;;;19.81;57.90;96585.59;10300941;28;20104;-29
2023/07/03 12:25:12;;;;;;;7.07;4.20;;;;;;;19.81;57.85;96592.34;10308611;28;20129;-29
2023/07/03 12:30:33;;;;;;;7.50;4.57;;;;;;;19.82;57.97;96594.91;10334033;28;20042;-29
2023/07/03 12:35:37;;;;;;;13.60;4.47;;;;;;;19.84;58.75;96580.47;10337255;28;20041;-29
2023/07/03 12:40:43;;;;;;;8.93;3.97;;;;;;;20.06;58.28;96586.25;10353420;28;20026;-30
2023/07/03 12:45:50;;;;;;;11.30;5.32;;;;;;;20.14;58.07;96589.59;10326712;28;20042;-29
2023/07/03 12:50:55;;;;;;;6.47;4.40;;;;;;;20.08;57.72;96584.59;10322100;28;20038;-30
2023/07/03 12:56:02;;;;;;;8.75;4.35;;;;;;;19.98;57.71;96582.91;10333020;28;20486;-29
2023/07/03 13:01:07;;;;;;;8.80;4.68;;;;;;;19.93;57.91;96592.28;10314616;28;20038;-30
2023/07/03 13:06:25;;;;;;;8.65;4.28;;;;;;;19.88;58.16;96581.31;10312659;28;20082;-29
2023/07/03 13:11:46;;;;;;;7.95;4.40;;;;;;;19.86;58.42;96577.94;10313215;28;20041;-29
2023/07/03 13:16:51;;;;;;;8.73;4.30;;;;;;;19.85;58.17;96581.34;10300462;28;20031;-30
2023/07/03 13:21:52;;;;;;;10.00;4.37;;;;;;;19.84;58.08;96575.41;10297107;28;20031;-30
2023/07/03 13:26:54;;;;;;;8.80;4.78;;;;;;;19.85;58.27;96577.09;10311526;28;20298;-29
2023/07/03 13:32:16;;;;;;;7.00;4.15;;;;;;;19.93;58.55;96564.34;10298967;28;20038;-30
2023/07/03 13:37:22;;;;;;;8.40;4.30;;;;;;;20.12;58.34;96570.97;10297310;28;20038;-30
2023/07/03 13:42:22;;;;;;;7.17;4.00;;;;;;;20.16;57.94;96565.84;10320518;28;20041;-29
2023/07/03 13:47:23;;;;;;;7.13;3.72;;;;;;;20.07;57.86;96562.53;10297462;28;20046;-29
2023/07/03 13:52:23;;;;;;;6.63;3.87;;;;;;;19.98;58.21;96563.44;10318251;28;20182;-29
2023/07/03 13:57:24;;;;;;;6.88;4.03;;;;;;;19.93;58.18;96564.34;10312152;28;20704;-29
2023/07/03 14:02:25;;;;;;;4.50;3.37;;;;;;;19.89;58.15;96562.66;10304672;28;20084;-30
2023/07/03 14:07:26;;;;;;;5.55;3.78;;;;;;;19.88;58.75;96560.97;10307041;28;20305;-29
2023/07/03 14:12:26;;;;;;;7.17;4.10;;;;;;;19.89;58.01;96570.28;10308883;28;20509;-30
2023/07/03 14:17:26;;;;;;;5.63;3.60;;;;;;;19.88;58.30;96572.00;10303407;28;20038;-30
2023/07/03 14:22:27;;;;;;;8.67;4.40;;;;;;;19.86;58.31;96568.59;10329177;28;20304;-30
2023/07/03 14:27:27;;;;;;;10.00;3.43;;;;;;;20.01;57.72;96567.66;10337668;28;20307;-29
2023/07/03 14:32:27;;;;;;;6.20;3.90;;;;;;;20.17;57.58;96571.78;10353242;28;20281;-30
2023/07/03 14:37:28;;;;;;;8.30;3.57;;;;;;;20.19;57.27;96567.53;10321611;28;20770;-30
2023/07/03 14:42:28;;;;;;;7.63;3.83;;;;;;;20.07;57.75;96563.38;10308733;28;20305;-29
2023/07/03 14:47:29;;;;;;;5.47;3.05;;;;;;;20.06;57.79;96555.78;10331014;28;20390;-30
2023/07/03 14:52:42;;;;;;;5.85;3.88;;;;;;;20.06;57.95;96550.69;10322569;28;20089;-29
2023/07/03 14:57:43;;;;;;;6.65;3.95;;;;;;;20.09;58.05;96550.69;10312893;28;20027;-30
2023/07/03 15:02:47;;;;;;;5.38;3.72;;;;;;;20.07;57.82;96534.56;10330321;28;20034;-29
2023/07/03 15:07:48;;;;;;;5.30;3.33;;;;;;;20.06;57.96;96540.53;10325831;28;20038;-29
2023/07/03 15:12:48;;;;;;;4.68;3.28;;;;;;;20.07;58.07;96524.41;10333256;28;20097;-29
2023/07/03 15:17:50;;;;;;;7.30;3.67;;;;;;;20.13;57.89;96519.28;10341266;28;20042;-29
2023/07/03 15:22:52;;;;;;;9.63;3.55;;;;;;;20.32;57.23;96518.22;10313260;28;20289;-29
2023/07/03 15:27:52;;;;;;;10.65;4.05;;;;;;;20.38;57.06;96518.19;10285159;28;20031;-30
2023/07/03 15:32:53;;;;;;;7.93;3.60;;;;;;;20.27;57.68;96520.81;10296548;28;20407;-29
2023/07/03 15:37:53;;;;;;;5.35;3.30;;;;;;;20.18;57.37;96509.91;10331512;28;20273;-29
2023/07/03 15:42:54;;;;;;;5.18;2.97;;;;;;;20.14;58.03;96508.25;10336315;28;20034;-30
2023/07/03 15:47:54;;;;;;;5.40;3.17;;;;;;;20.13;58.09;96506.56;10328152;28;20034;-28
2023/07/03 15:52:55;;;;;;;7.07;3.53;;;;;;;20.21;57.32;96492.09;10316898;28;20290;-29
2023/07/03 15:57:56;;;;;;;6.60;3.33;;;;;;;20.15;58.02;96487.06;10317512;28;20281;-29
2023/07/03 16:02:56;;;;;;;7.30;3.13;;;;;;;20.12;57.89;96492.19;10329171;28;20033;-29
2023/07/03 16:07:56;;;;;;;6.10;3.37;;;;;;;20.15;57.86;96492.13;10331639;28;20354;-29
2023/07/03 16:12:57;;;;;;;4.43;3.17;;;;;;;20.12;58.09;96490.50;10339427;28;20512;-30
2023/07/03 16:17:57;;;;;;;3.90;2.57;;;;;;;20.29;57.63;96487.75;10310564;28;20289;-30
2023/07/03 16:22:58;;;;;;;5.50;3.30;;;;;;;20.39;57.62;96480.84;10306676;28;20298;-29
2023/07/03 16:27:58;;;;;;;4.57;2.73;;;;;;;20.30;57.59;96492.00;10320316;28;20309;-30
2023/07/03 16:32:59;;;;;;;6.88;2.97;;;;;;;20.24;58.28;96489.50;10317767;28;20360;-29
2023/07/03 16:38:02;;;;;;;4.40;2.75;;;;;;;20.22;57.99;96503.94;10294533;28;20046;-29
2023/07/03 16:43:02;;;;;;;4.90;2.60;;;;;;;20.20;57.87;96503.13;10338355;28;20089;-29
2023/07/03 16:48:03;;;;;;;4.47;2.60;;;;;;;20.19;58.02;96501.44;10326340;28;20035;-29
2023/07/03 16:53:03;;;;;;;5.60;2.97;;;;;;;20.27;57.51;96499.66;10314705;28;20289;-29
2023/07/03 16:58:03;;;;;;;4.53;2.60;;;;;;;20.47;56.21;96501.94;10321404;28;20422;-30
2023/07/03 17:03:05;;;;;;;4.03;2.63;;;;;;;20.23;57.65;96508.16;10338613;28;20350;-31
2023/07/03 17:08:07;;;;;;;5.68;2.72;;;;;;;20.18;57.99;96504.84;10337895;28;20329;-30
2023/07/03 17:13:10;;;;;;;9.57;3.35;;;;;;;20.37;57.60;96508.88;10315744;28;20026;-29
2023/07/03 17:18:12;;;;;;;6.30;2.53;;;;;;;20.45;57.34;96507.94;10322567;28;20030;-29
2023/07/03 17:23:13;;;;;;;5.68;2.55;;;;;;;20.36;57.59;96504.66;10305960;28;20764;-29
2023/07/03 17:28:14;;;;;;;7.38;2.53;;;;;;;20.22;57.92;96504.78;10314312;28;20053;-29
2023/07/03 17:33:14;;;;;;;6.07;2.92;;;;;;;20.25;57.93;96501.38;10313174;28;20118;-30
2023/07/03 17:38:15;;;;;;;5.17;2.30;;;;;;;20.30;57.88;96499.63;10329186;28;20034;-30
2023/07/03 17:43:22;;;;;;;4.53;2.25;;;;;;;20.32;57.76;96495.34;10311120;28;20289;-29
2023/07/03 17:48:26;;;;;;;8.57;3.03;;;;;;;20.34;57.84;96506.38;10311841;28;20034;-30
2023/07/03 17:53:29;;;;;;;15.43;3.38;;;;;;;20.30;58.60;96510.63;10310482;28;20038;-29
2023/07/03 17:58:29;;;;;;;26.10;3.60;;;;;;;20.39;58.44;96505.44;10312403;28;20117;-30
2023/07/03 18:03:30;;;;;;;13.82;3.50;;;;;;;20.37;58.40;96499.56;10318110;28;20105;-37
2023/07/03 18:08:30;;;;;;;11.40;2.92;;;;;;;20.45;58.14;96508.75;10337956;28;20114;-30
2023/07/03 18:13:31;;;;;;;6.60;2.63;;;;;;;20.51;57.75;96502.75;10345655;28;20536;-30
2023/07/03 18:18:31;;;;;;;8.32;2.90;;;;;;;20.45;58.36;96500.31;10358349;28;20387;-29
2023/07/03 18:23:32;;;;;;;17.27;3.67;;;;;;;20.42;58.10;96499.50;10335221;28;20039;-30
2023/07/03 18:28:32;;;;;;;6.22;2.28;;;;;;;20.39;58.08;96501.19;10348244;28;20117;-30
2023/07/03 18:33:33;;;;;;;8.87;2.80;;;;;;;20.40;57.96;96502.06;10351797;28;20030;-30
2023/07/03 18:38:34;;;;;;;6.50;2.45;;;;;;;20.37;57.82;96511.41;10320768;28;20034;-29
2023/07/03 18:43:34;;;;;;;8.40;3.13;;;;;;;20.35;58.29;96503.78;10320713;28;20030;-29
2023/07/03 18:48:35;;;;;;;8.68;2.70;;;;;;;20.33;58.43;96504.69;10313399;28;20087;-30
2023/07/03 18:53:35;;;;;;;4.72;2.10;;;;;;;20.34;58.04;96521.63;10333518;28;20522;-30
2023/07/03 18:58:36;;;;;;;4.10;2.33;;;;;;;20.36;58.33;96514.81;10313759;28;20089;-30
2023/07/03 19:03:36;;;;;;;5.20;3.25;;;;;;;20.48;58.23;96523.97;10321435;28;20027;-30
2023/07/03 19:08:37;;;;;;;5.13;2.60;;;;;;;20.52;58.00;96517.16;10322764;28;20037;-30
2023/07/03 19:13:38;;;;;;;5.88;2.20;;;;;;;20.45;57.82;96516.38;10323788;28;20039;-30
2023/07/03 19:18:39;;;;;;;4.63;2.53;;;;;;;20.39;58.09;96519.00;10321963;28;20041;-30
2023/07/03 19:23:39;;;;;;;3.25;2.17;;;;;;;20.37;58.30;96526.66;10336382;28;20466;-30
2023/07/03 19:28:43;;;;;;;5.70;1.93;;;;;;;20.35;58.29;96526.66;10326907;28;20411;-37
2023/07/03 19:33:44;;;;;;;6.13;2.05;;;;;;;20.33;58.46;96532.66;10318368;28;20286;-29
2023/07/03 19:38:44;;;;;;;4.17;2.20;;;;;;;20.32;58.31;96531.81;10322606;28;20410;-30
2023/07/03 19:43:44;;;;;;;4.17;2.37;;;;;;;20.32;58.56;96543.66;10299269;28;20109;-29
2023/07/03 19:48:45;;;;;;;4.55;2.42;;;;;;;20.31;58.56;96541.97;10320248;28;20350;-30
2023/07/03 19:53:47;;;;;;;4.35;2.13;;;;;;;20.35;58.59;96554.63;10340857;28;20029;-30
2023/07/03 19:58:47;;;;;;;5.07;2.53;;;;;;;20.51;57.87;96554.47;10336979;28;20030;-30
2023/07/03 20:03:48;;;;;;;3.90;2.15;;;;;;;20.55;57.42;96566.28;10314466;28;20041;-30
2023/07/03 20:08:53;;;;;;;6.10;2.35;;;;;;;20.43;58.05;96571.53;10325647;28;20145;-30
2023/07/03 20:13:53;;;;;;;3.20;2.35;;;;;;;20.36;58.21;96580.94;10341157;28;20434;-30
2023/07/03 20:18:54;;;;;;;2.57;1.77;;;;;;;20.33;58.38;96586.06;10347648;28;20121;-31
2023/07/03 20:23:56;;;;;;;6.32;2.45;;;;;;;20.30;58.31;96576.75;10348709;28;20293;-30
2023/07/03 20:28:57;;;;;;;3.17;1.73;;;;;;;20.29;58.49;96586.91;10350677;28;20112;-29
2023/07/03 20:33:57;;;;;;;2.85;2.25;;;;;;;20.29;58.38;96594.53;10334977;28;20073;-29
2023/07/03 20:38:58;;;;;;;6.00;2.25;;;;;;;20.28;58.53;96592.88;10348684;28;20040;-30
2023/07/03 20:43:59;;;;;;;3.20;1.90;;;;;;;20.27;58.44;96578.47;10334689;28;20041;-30
2023/07/03 20:49:00;;;;;;;4.45;2.60;;;;;;;20.34;58.98;96597.91;10338024;28;20066;-29
2023/07/03 20:54:04;;;;;;;2.22;1.90;;;;;;;20.51;58.51;96605.34;10327101;28;20140;-29
2023/07/03 20:59:06;;;;;;;3.05;2.20;;;;;;;20.55;58.42;96596.81;10304078;28;20031;-30
2023/07/03 21:04:07;;;;;;;3.53;2.17;;;;;;;20.42;57.93;96603.75;10322371;28;20027;-29
2023/07/03 21:09:08;;;;;;;2.60;1.70;;;;;;;20.33;58.48;96601.31;10321059;28;20038;-30
2023/07/03 21:14:10;;;;;;;3.88;1.95;;;;;;;20.30;58.54;96619.09;10336683;28;20061;-30
2023/07/03 21:19:12;;;;;;;2.00;1.80;;;;;;;20.29;58.49;96628.44;10336125;28;20034;-29
2023/07/03 21:24:12;;;;;;;3.03;1.83;;;;;;;20.28;58.60;96628.47;10339062;28;20030;-30
2023/07/03 21:29:13;;;;;;;2.72;2.05;;;;;;;20.27;58.59;96614.06;10336998;28;20044;-30
2023/07/03 21:34:13;;;;;;;2.15;1.58;;;;;;;20.26;58.40;96615.75;10307933;28;20045;-30
2023/07/03 21:39:16;;;;;;;3.23;2.37;;;;;;;20.25;59.10;96615.78;10327189;28;20026;-30
2023/07/03 21:44:17;;;;;;;4.15;2.25;;;;;;;20.34;59.14;96630.97;10368807;28;20276;-30
2023/07/03 21:49:17;;;;;;;2.90;2.08;;;;;;;20.51;59.25;96628.25;10316198;28;20039;-30
2023/07/03 21:54:18;;;;;;;2.95;2.22;;;;;;;20.52;58.83;96619.75;10303569;28;20105;-30
2023/07/03 21:59:19;;;;;;;2.08;1.88;;;;;;;20.38;58.50;96626.66;10330227;28;20380;-30
2023/07/03 22:04:19;;;;;;;2.45;1.70;;;;;;;20.30;58.57;96626.75;10336523;28;20100;-29
2023/07/03 22:09:20;;;;;;;2.80;1.80;;;;;;;20.29;58.62;96625.06;10337754;28;20049;-30
2023/07/03 22:14:20;;;;;;;4.00;2.13;;;;;;;20.27;58.42;96626.78;10313146;28;20049;-30
2023/07/03 22:19:20;;;;;;;2.97;1.70;;;;;;;20.24;58.78;96619.16;10343298;28;20753;-29
2023/07/03 22:24:21;;;;;;;2.97;2.07;;;;;;;20.24;58.84;96606.44;10351666;28;20776;-30
2023/07/03 22:29:21;;;;;;;3.50;1.80;;;;;;;20.24;58.70;96606.44;10326615;28;20299;-30
2023/07/03 22:34:22;;;;;;;3.77;1.90;;;;;;;20.24;58.82;96606.44;10337397;28;20033;-30
2023/07/03 22:39:22;;;;;;;2.33;2.13;;;;;;;20.37;59.94;96603.81;10311692;28;20037;-30
2023/07/03 22:44:22;;;;;;;3.20;2.27;;;;;;;20.51;61.46;96602.81;10327383;28;20693;-30
2023/07/03 22:49:23;;;;;;;3.10;1.80;;;;;;;20.49;59.45;96604.53;10335287;28;20496;-30
2023/07/03 22:54:23;;;;;;;2.97;1.90;;;;;;;20.38;59.21;96609.72;10315702;28;20290;-30
2023/07/03 22:59:24;;;;;;;2.70;1.80;;;;;;;20.30;58.94;96598.78;10325695;28;20073;-30
2023/07/03 23:04:24;;;;;;;2.10;1.60;;;;;;;20.28;58.92;96603.03;10326842;28;20667;-30
2023/07/03 23:09:26;;;;;;;3.30;2.00;;;;;;;20.25;58.80;96598.81;10341705;28;20038;-30
2023/07/03 23:14:26;;;;;;;2.08;1.77;;;;;;;20.25;58.68;96603.06;10327514;28;20293;-29
2023/07/03 23:19:28;;;;;;;2.72;1.63;;;;;;;20.26;59.02;96604.75;10347661;28;20051;-30